Time;durP1;ratioP1;P1;durP2;ratioP2;P2;SDS_P1;SDS_P2;PMS_P1;PMS_P2;Temp;Humidity;BMP_temperature;BMP_pressure;BME280_temperature;BME280_humidity;BME280_pressure;Samples;Min_cycle;Max_cycle;Signal;HPM_P1;HPM_P2
2023/03/10 00:01:54;;;;;;;;;;;;;;;23.67;52.01;96264.13;588706;241;64855;-69
2023/03/10 00:04:21;;;;;;;;;;;;;;;23.66;50.09;96259.08;588742;241;64978;-69
2023/03/10 00:06:49;;;;;;;;;;;;;;;23.66;51.20;96251.03;588781;241;65116;-69
2023/03/10 00:09:16;;;;;;;;;;;;;;;23.66;52.28;96251.03;588728;241;67278;-69
2023/03/10 00:11:44;;;;;;;;;;;;;;;23.67;52.27;96250.71;588760;241;64729;-61
2023/03/10 00:14:11;;;;;;;;;;;;;;;23.66;52.30;96245.67;588696;241;63827;-61
2023/03/10 00:16:39;;;;;;;;;;;;;;;23.65;50.84;96247.56;588723;241;67211;-61
2023/03/10 00:19:06;;;;;;;;;;;;;;;23.65;48.47;96257.48;588775;241;65219;-61
2023/03/10 00:21:34;;;;;;;;;;;;;;;23.63;51.81;96249.76;588734;241;62957;-61
2023/03/10 00:24:02;;;;;;;;;;;;;;;23.64;51.51;96259.37;588721;241;67346;-61
2023/03/10 00:26:30;;;;;;;;;;;;;;;23.62;50.60;96242.79;588705;241;67080;-61
2023/03/10 00:28:58;;;;;;;;;;;;;;;23.61;51.69;96243.90;588717;241;62657;-60
2023/03/10 00:31:27;;;;;;;;;;;;;;;23.61;49.21;96243.90;588807;241;65018;-61
2023/03/10 00:33:55;;;;;;;;;;;;;;;23.61;50.40;96245.80;588730;240;64819;-61
2023/03/10 00:36:24;;;;;;;;;;;;;;;23.60;50.20;96236.96;588785;241;63015;-69
2023/03/10 00:38:52;;;;;;;;;;;;;;;23.61;54.68;96227.02;588762;241;66961;-69
2023/03/10 00:41:21;;;;;;;;;;;;;;;23.59;50.82;96224.62;588713;241;64469;-69
2023/03/10 00:43:49;;;;;;;;;;;;;;;23.59;50.90;96221.95;588793;241;65008;-69
2023/03/10 00:46:17;;;;;;;;;;;;;;;23.59;52.53;96210.43;588738;241;65066;-69
2023/03/10 00:48:45;;;;;;;;;;;;;;;23.59;53.48;96213.11;588774;241;64995;-69
2023/03/10 00:51:12;;;;;;;;;;;;;;;23.58;52.43;96211.55;588747;241;62805;-69
2023/03/10 00:53:40;;;;;;;;;;;;;;;23.58;52.76;96206.18;588781;241;64939;-69
2023/03/10 00:56:10;;;;;;;;;;;;;;;23.55;50.58;96204.90;588751;241;64863;-69
2023/03/10 00:58:37;;;;;;;;;;;;;;;23.56;50.15;96205.69;588569;241;62765;-69
2023/03/10 01:01:06;;;;;;;;;;;;;;;23.56;51.80;96205.69;588796;241;67223;-69
2023/03/10 01:03:34;;;;;;;;;;;;;;;23.55;50.41;96210.27;588640;241;66843;-69
2023/03/10 01:06:01;;;;;;;;;;;;;;;23.54;49.48;96194.47;588743;241;65052;-69
2023/03/10 01:08:29;;;;;;;;;;;;;;;23.54;51.55;96199.83;588709;241;64434;-69
2023/03/10 01:10:57;;;;;;;;;;;;;;;23.53;50.43;96204.41;588789;241;66832;-69
2023/03/10 01:13:24;;;;;;;;;;;;;;;23.53;50.82;96207.09;588759;241;66240;-69
2023/03/10 01:15:52;;;;;;;;;;;;;;;23.54;52.03;96219.39;588729;241;64996;-69
2023/03/10 01:18:21;;;;;;;;;;;;;;;23.52;51.91;96218.92;588763;241;67274;-69
2023/03/10 01:20:49;;;;;;;;;;;;;;;23.52;50.44;96224.29;588716;241;66044;-69
2023/03/10 01:23:18;;;;;;;;;;;;;;;23.52;51.45;96218.11;588794;241;67425;-69
2023/03/10 01:25:46;;;;;;;;;;;;;;;23.51;49.17;96208.49;588762;241;66786;-69
2023/03/10 01:28:13;;;;;;;;;;;;;;;23.51;50.89;96211.96;588749;241;62679;-69
2023/03/10 01:30:41;;;;;;;;;;;;;;;23.52;52.41;96210.06;588720;241;65099;-69
2023/03/10 01:33:09;;;;;;;;;;;;;;;23.51;52.39;96213.86;588721;241;67488;-69
2023/03/10 01:35:37;;;;;;;;;;;;;;;23.49;50.72;96211.50;591117;240;65003;-69
2023/03/10 01:38:05;;;;;;;;;;;;;;;23.49;50.62;96216.86;591243;240;67185;-69
2023/03/10 01:40:34;;;;;;;;;;;;;;;23.49;53.22;96214.17;591236;240;65092;-68
2023/03/10 01:43:18;;;;;;;;;;;;;;;23.48;50.85;96208.00;591264;240;65064;-69
2023/03/10 01:45:47;;;;;;;;;;;;;;;23.48;52.86;96205.31;591250;240;64848;-60
2023/03/10 01:48:17;;;;;;;;;;;;;;;23.46;51.31;96204.85;591266;240;67671;-60
2023/03/10 01:50:45;;;;;;;;;;;;;;;23.46;51.15;96212.90;591327;240;63889;-60
2023/03/10 01:53:14;;;;;;;;;;;;;;;23.47;51.52;96219.05;591256;240;67413;-60
2023/03/10 01:55:45;;;;;;;;;;;;;;;23.46;52.31;96212.08;591266;240;67839;-61
2023/03/10 01:58:14;;;;;;;;;;;;;;;23.45;51.73;96205.14;591249;240;64957;-61
2023/03/10 02:00:43;;;;;;;;;;;;;;;23.46;53.42;96206.72;591238;240;67254;-61
2023/03/10 02:03:17;;;;;;;;;;;;;;;23.43;49.73;96202.76;591277;240;68038;-69
2023/03/10 02:05:46;;;;;;;;;;;;;;;23.45;52.89;96197.10;591307;240;65100;-70
2023/03/10 02:08:14;;;;;;;;;;;;;;;23.44;53.36;96196.31;591279;240;67093;-70
2023/03/10 02:10:42;;;;;;;;;;;;;;;23.43;54.71;96197.39;591251;240;67127;-61
2023/03/10 02:13:09;;;;;;;;;;;;;;;23.42;51.52;96190.45;591234;240;65271;-61
2023/03/10 02:15:37;;;;;;;;;;;;;;;23.41;50.76;96186.20;591285;240;67060;-61
2023/03/10 02:18:06;;;;;;;;;;;;;;;23.42;50.22;96192.36;591307;240;67063;-61
2023/03/10 02:20:40;;;;;;;;;;;;;;;23.41;51.43;96194.25;591268;240;62752;-61
2023/03/10 02:23:09;;;;;;;;;;;;;;;23.41;55.75;96201.51;591119;240;67057;-61
2023/03/10 02:25:46;;;;;;;;;;;;;;;23.40;50.92;96199.91;591246;240;64720;-61
2023/03/10 02:28:14;;;;;;;;;;;;;;;23.40;53.53;96195.33;591205;239;65785;-61
2023/03/10 02:30:45;;;;;;;;;;;;;;;23.40;52.82;96205.27;591269;240;64668;-62
2023/03/10 02:33:14;;;;;;;;;;;;;;;23.39;52.88;96209.06;591307;240;65668;-59
2023/03/10 02:35:44;;;;;;;;;;;;;;;23.39;51.92;96222.47;591346;239;65606;-60
2023/03/10 02:38:13;;;;;;;;;;;;;;;23.37;51.14;96216.61;593177;239;43994;-60
2023/03/10 02:40:42;;;;;;;;;;;;;;;23.37;50.63;96219.29;593200;239;64322;-60
2023/03/10 02:43:13;;;;;;;;;;;;;;;23.37;50.78;96212.03;593214;238;43010;-60
2023/03/10 02:45:42;;;;;;;;;;;;;;;23.37;51.23;96216.61;591345;239;67728;-60
2023/03/10 02:48:11;;;;;;;;;;;;;;;23.37;51.69;96213.92;593165;239;65118;-60
2023/03/10 02:50:41;;;;;;;;;;;;;;;23.36;51.38;96215.82;593102;239;65639;-60
2023/03/10 02:53:10;;;;;;;;;;;;;;;23.36;52.39;96210.46;593171;239;64896;-60
2023/03/10 02:55:38;;;;;;;;;;;;;;;23.34;51.57;96207.28;592983;239;67134;-60
2023/03/10 02:58:06;;;;;;;;;;;;;;;23.35;51.50;96211.53;593148;239;62492;-60
2023/03/10 03:00:35;;;;;;;;;;;;;;;23.35;52.61;96213.43;593230;239;64869;-60
2023/03/10 03:03:03;;;;;;;;;;;;;;;23.33;52.73;96197.67;593159;239;64662;-60
2023/03/10 03:05:30;;;;;;;;;;;;;;;23.34;51.78;96198.45;593191;239;65091;-60
2023/03/10 03:07:59;;;;;;;;;;;;;;;23.34;51.06;96198.45;593197;239;66590;-60
2023/03/10 03:10:27;;;;;;;;;;;;;;;23.33;53.78;96192.30;593165;239;64742;-60
2023/03/10 03:12:55;;;;;;;;;;;;;;;23.32;51.99;96187.23;593214;239;65143;-60
2023/03/10 03:15:23;;;;;;;;;;;;;;;23.33;50.90;96183.48;593171;239;65138;-60
2023/03/10 03:17:53;;;;;;;;;;;;;;;23.31;50.87;96178.41;593143;238;67184;-60
2023/03/10 03:20:21;;;;;;;;;;;;;;;23.32;52.55;96176.52;593181;239;65445;-60
2023/03/10 03:22:49;;;;;;;;;;;;;;;23.31;51.13;96180.30;593155;239;66825;-60
2023/03/10 03:25:18;;;;;;;;;;;;;;;23.30;51.10;96176.02;593212;239;65603;-60
2023/03/10 03:27:46;;;;;;;;;;;;;;;23.29;53.85;96169.88;593173;239;65772;-61
2023/03/10 03:30:18;;;;;;;;;;;;;;;23.29;50.13;96177.13;593116;239;67162;-61
2023/03/10 03:32:45;;;;;;;;;;;;;;;23.30;52.38;96176.02;593194;239;67123;-60
2023/03/10 03:35:14;;;;;;;;;;;;;;;23.29;51.55;96171.77;589656;239;65053;-61
2023/03/10 03:37:42;;;;;;;;;;;;;;;23.28;50.21;96167.52;588690;241;64962;-61
2023/03/10 03:40:12;;;;;;;;;;;;;;;23.28;51.11;96170.98;588783;241;67436;-61
2023/03/10 03:42:41;;;;;;;;;;;;;;;23.26;50.66;96168.59;588721;241;65062;-61
2023/03/10 03:45:09;;;;;;;;;;;;;;;23.26;50.47;96178.53;588733;241;67171;-61
2023/03/10 03:47:37;;;;;;;;;;;;;;;23.25;51.79;96180.42;588756;241;67066;-61
2023/03/10 03:50:05;;;;;;;;;;;;;;;23.26;53.24;96183.89;588732;241;64875;-61
2023/03/10 03:52:32;;;;;;;;;;;;;;;23.24;50.97;96184.22;588757;241;67254;-61
2023/03/10 03:55:00;;;;;;;;;;;;;;;23.24;52.11;96180.72;588732;241;67222;-61
2023/03/10 03:57:28;;;;;;;;;;;;;;;23.24;52.69;96189.58;588745;241;64946;-61
2023/03/10 03:59:56;;;;;;;;;;;;;;;23.24;51.75;96183.39;588728;241;67263;-61
2023/03/10 04:02:24;;;;;;;;;;;;;;;23.24;51.59;96186.08;588733;241;68087;-61
2023/03/10 04:04:53;;;;;;;;;;;;;;;23.22;51.90;96189.08;588789;241;65851;-60
2023/03/10 04:07:21;;;;;;;;;;;;;;;23.22;51.85;96181.03;588763;241;67122;-62
2023/03/10 04:09:49;;;;;;;;;;;;;;;23.22;52.04;96181.03;588751;241;64925;-59
2023/03/10 04:12:17;;;;;;;;;;;;;;;23.21;51.89;96174.08;588763;241;62339;-61
2023/03/10 04:14:46;;;;;;;;;;;;;;;23.21;53.00;96166.03;588812;239;48288;-62
2023/03/10 04:17:15;;;;;;;;;;;;;;;23.21;50.95;96159.89;588808;241;67701;-62
2023/03/10 04:19:43;;;;;;;;;;;;;;;23.20;51.02;96163.67;588820;241;65668;-61
2023/03/10 04:22:11;;;;;;;;;;;;;;;23.19;51.85;96154.84;588740;241;64135;-62
2023/03/10 04:24:39;;;;;;;;;;;;;;;23.19;51.14;96157.53;588763;241;64419;-61
2023/03/10 04:27:08;;;;;;;;;;;;;;;23.19;49.90;96156.71;588700;241;63865;-70
2023/03/10 04:29:36;;;;;;;;;;;;;;;23.18;51.61;96153.25;588780;241;64845;-70
2023/03/10 04:32:04;;;;;;;;;;;;;;;23.18;52.32;96153.25;588725;241;67401;-67
2023/03/10 04:34:32;;;;;;;;;;;;;;;23.18;52.59;96157.82;590052;240;65041;-70
2023/03/10 04:37:01;;;;;;;;;;;;;;;23.18;51.19;96163.18;591243;240;65804;-70
2023/03/10 04:39:28;;;;;;;;;;;;;;;23.17;48.33;96166.97;591267;240;67096;-70
2023/03/10 04:41:56;;;;;;;;;;;;;;;23.16;50.75;96168.86;591271;240;65069;-69
2023/03/10 04:44:24;;;;;;;;;;;;;;;23.16;51.19;96163.50;591281;240;64585;-70
2023/03/10 04:46:52;;;;;;;;;;;;;;;23.16;50.54;96162.69;591316;240;67448;-69
2023/03/10 04:49:19;;;;;;;;;;;;;;;23.16;51.07;96160.01;583648;240;66888;-70
2023/03/10 04:51:47;;;;;;;;;;;;;;;23.15;49.57;96161.12;591240;240;67158;-70
2023/03/10 04:54:17;;;;;;;;;;;;;;;23.15;50.60;96166.47;591289;240;43697;-70
2023/03/10 04:56:44;;;;;;;;;;;;;;;23.14;50.79;96167.58;591271;240;62810;-70
2023/03/10 04:59:12;;;;;;;;;;;;;;;23.14;51.47;96162.22;591306;240;67590;-69
2023/03/10 05:01:39;;;;;;;;;;;;;;;23.14;51.63;96160.33;591254;240;67006;-69
2023/03/10 05:04:07;;;;;;;;;;;;;;;23.13;49.78;96152.58;591263;240;63526;-69
2023/03/10 05:06:35;;;;;;;;;;;;;;;23.13;50.02;96158.73;591267;240;67616;-69
2023/03/10 05:09:20;;;;;;;;;;;;;;;23.14;52.77;96154.19;591406;240;38946;-69
2023/03/10 05:11:48;;;;;;;;;;;;;;;23.12;50.43;96146.44;591255;240;63801;-70
2023/03/10 05:14:18;;;;;;;;;;;;;;;23.11;50.83;96139.50;591300;237;51730;-69
2023/03/10 05:16:47;;;;;;;;;;;;;;;23.11;49.86;96144.86;591241;240;67374;-70
2023/03/10 05:19:14;;;;;;;;;;;;;;;23.11;50.86;96144.05;591266;240;64948;-70
2023/03/10 05:21:42;;;;;;;;;;;;;;;23.11;50.95;96152.91;591258;240;67144;-70
2023/03/10 05:24:10;;;;;;;;;;;;;;;23.09;48.86;96147.05;591253;240;64578;-69
2023/03/10 05:26:38;;;;;;;;;;;;;;;23.10;49.85;96148.62;591259;240;65809;-70
2023/03/10 05:29:05;;;;;;;;;;;;;;;23.11;50.94;96152.09;591235;240;67779;-70
2023/03/10 05:31:47;;;;;;;;;;;;;;;23.11;52.84;96154.77;591172;240;44268;-69
2023/03/10 05:34:16;;;;;;;;;;;;;;;23.11;51.49;96152.09;591183;240;41467;-69
2023/03/10 05:36:45;;;;;;;;;;;;;;;23.11;51.28;96155.58;591281;240;67388;-69
2023/03/10 05:39:14;;;;;;;;;;;;;;;23.11;52.52;96144.05;591275;239;43890;-69
2023/03/10 05:41:43;;;;;;;;;;;;;;;23.12;55.67;96135.71;591287;240;42251;-69
2023/03/10 05:44:11;;;;;;;;;;;;;;;23.12;54.61;96133.03;591236;240;67894;-69
2023/03/10 05:46:39;;;;;;;;;;;;;;;23.12;53.74;96141.08;591232;240;67665;-70
2023/03/10 05:49:07;;;;;;;;;;;;;;;23.12;55.00;96141.08;591255;240;62511;-70
2023/03/10 05:51:35;;;;;;;;;;;;;;;23.12;53.13;96138.39;591240;240;65799;-69
2023/03/10 05:54:08;;;;;;;;;;;;;;;23.13;51.35;96141.86;591269;240;46616;-69
2023/03/10 05:56:36;;;;;;;;;;;;;;;23.13;49.92;96137.28;591241;240;65796;-69
2023/03/10 05:59:05;;;;;;;;;;;;;;;23.15;53.77;96132.42;591272;240;68065;-69
2023/03/10 06:01:35;;;;;;;;;;;;;;;23.16;53.38;96138.56;591275;239;40211;-69
2023/03/10 06:04:02;;;;;;;;;;;;;;;23.16;51.19;96136.70;591253;240;65812;-69
2023/03/10 06:06:30;;;;;;;;;;;;;;;23.18;52.52;96139.84;591259;240;68149;-69
2023/03/10 06:08:57;;;;;;;;;;;;;;;23.19;51.03;96138.77;591254;240;67260;-70
2023/03/10 06:11:25;;;;;;;;;;;;;;;23.20;49.81;96142.23;591252;240;62974;-69
2023/03/10 06:13:52;;;;;;;;;;;;;;;23.22;52.22;96134.69;591273;237;64922;-69
2023/03/10 06:16:20;;;;;;;;;;;;;;;23.22;50.66;96140.05;591237;240;64933;-69
2023/03/10 06:18:47;;;;;;;;;;;;;;;23.23;49.46;96133.58;591219;240;62986;-61
2023/03/10 06:21:15;;;;;;;;;;;;;;;23.25;50.58;96126.81;591284;240;67235;-61
2023/03/10 06:23:43;;;;;;;;;;;;;;;23.26;52.28;96125.70;591299;240;64587;-61
2023/03/10 06:26:15;;;;;;;;;;;;;;;23.27;49.34;96131.85;591230;240;65089;-61
2023/03/10 06:28:44;;;;;;;;;;;;;;;23.29;48.65;96132.34;591100;240;65009;-61
2023/03/10 06:31:18;;;;;;;;;;;;;;;23.31;49.24;96129.37;591235;240;67350;-61
2023/03/10 06:33:46;;;;;;;;;;;;;;;23.31;49.99;96132.83;590797;240;63666;-61
2023/03/10 06:36:14;;;;;;;;;;;;;;;23.33;50.21;96127.97;588755;241;65879;-61
2023/03/10 06:38:41;;;;;;;;;;;;;;;23.34;50.74;96128.75;588731;241;67084;-61
2023/03/10 06:41:09;;;;;;;;;;;;;;;23.34;50.58;96124.17;588762;241;65053;-61
2023/03/10 06:43:36;;;;;;;;;;;;;;;23.36;50.40;96124.66;588747;241;65168;-61
2023/03/10 06:46:05;;;;;;;;;;;;;;;23.38;51.24;96125.16;588650;241;64970;-61
2023/03/10 06:48:33;;;;;;;;;;;;;;;23.39;49.89;96128.63;588742;241;62935;-62
2023/03/10 06:51:00;;;;;;;;;;;;;;;23.41;49.15;96121.07;588757;241;64627;-60
2023/03/10 06:53:28;;;;;;;;;;;;;;;23.42;48.28;96117.28;587964;241;64960;-60
2023/03/10 06:56:00;;;;;;;;;;;;;;;23.43;46.77;96119.63;588763;237;65102;-60
2023/03/10 06:58:28;;;;;;;;;;;;;;;23.43;46.79;96114.27;588647;241;65385;-61
2023/03/10 07:00:55;;;;;;;;;;;;;;;23.45;48.80;96105.94;588622;241;67857;-61
2023/03/10 07:03:25;;;;;;;;;;;;;;;23.45;50.89;96106.72;588625;241;65063;-62
2023/03/10 07:05:53;;;;;;;;;;;;;;;23.46;50.65;96112.86;588667;241;67144;-61
2023/03/10 07:08:20;;;;;;;;;;;;;;;23.47;51.42;96106.42;588714;241;64941;-62
2023/03/10 07:10:48;;;;;;;;;;;;;;;23.48;48.87;96099.95;588670;241;63054;-61
2023/03/10 07:13:16;;;;;;;;;;;;;;;23.51;50.73;96093.97;588702;241;64712;-61
2023/03/10 07:15:44;;;;;;;;;;;;;;;23.51;48.94;96096.64;588715;241;66990;-61
2023/03/10 07:18:12;;;;;;;;;;;;;;;23.53;48.90;96099.82;588699;241;65079;-60
2023/03/10 07:20:40;;;;;;;;;;;;;;;23.55;49.62;96094.95;588685;241;67035;-60
2023/03/10 07:23:08;;;;;;;;;;;;;;;23.56;49.47;96091.15;588644;241;66854;-62
2023/03/10 07:25:36;;;;;;;;;;;;;;;23.60;51.49;96091.31;588731;241;62767;-60
2023/03/10 07:28:04;;;;;;;;;;;;;;;23.64;49.16;96089.61;588670;241;64855;-61
2023/03/10 07:30:32;;;;;;;;;;;;;;;23.68;48.84;96088.69;588734;241;64669;-61
2023/03/10 07:32:59;;;;;;;;;;;;;;;23.72;47.65;96098.83;588725;241;63229;-61
2023/03/10 07:35:27;;;;;;;;;;;;;;;23.75;48.62;96082.09;588588;240;64709;-62
2023/03/10 07:37:54;;;;;;;;;;;;;;;23.77;47.49;96077.22;588710;241;64767;-61
2023/03/10 07:40:23;;;;;;;;;;;;;;;23.80;47.83;96073.91;588760;241;63009;-61
2023/03/10 07:42:53;;;;;;;;;;;;;;;23.82;49.16;96071.72;588663;241;67048;-61
2023/03/10 07:45:21;;;;;;;;;;;;;;;23.84;47.07;96058.76;588683;241;67423;-61
2023/03/10 07:47:52;;;;;;;;;;;;;;;23.85;47.08;96058.45;588912;240;65043;-61
2023/03/10 07:50:20;;;;;;;;;;;;;;;23.87;46.17;96058.95;591154;240;67200;-61
2023/03/10 07:52:47;;;;;;;;;;;;;;;23.88;46.22;96065.09;591217;240;67169;-62
2023/03/10 07:55:14;;;;;;;;;;;;;;;;;;591202;240;64989;-61
2023/03/10 07:57:41;;;;;;;;;;;;;;;23.91;47.42;96038.42;591223;240;66085;-61
2023/03/10 08:00:09;;;;;;;;;;;;;;;23.87;49.07;96055.45;591247;240;67023;-60
2023/03/10 08:02:39;;;;;;;;;;;;;;;23.86;48.58;96048.52;591297;240;46083;-60
2023/03/10 08:05:07;;;;;;;;;;;;;;;23.83;48.60;96041.88;591184;240;64482;-61
2023/03/10 08:07:35;;;;;;;;;;;;;;;23.82;49.06;96037.63;591244;240;67124;-60
2023/03/10 08:10:03;;;;;;;;;;;;;;;23.82;48.73;96034.94;591163;237;63006;-66
2023/03/10 08:12:31;;;;;;;;;;;;;;;23.81;49.66;96033.34;591201;240;65302;-60
2023/03/10 08:14:58;;;;;;;;;;;;;;;23.82;50.37;96026.11;591245;240;64986;-60
2023/03/10 08:17:29;;;;;;;;;;;;;;;23.80;49.38;96021.04;591165;240;65081;-60
2023/03/10 08:19:57;;;;;;;;;;;;;;;23.81;46.97;96016.46;591258;240;67293;-61
2023/03/10 08:22:25;;;;;;;;;;;;;;;23.81;48.95;96019.92;591238;240;67139;-62
2023/03/10 08:24:53;;;;;;;;;;;;;;;23.81;42.21;96019.14;591173;240;64966;-61
2023/03/10 08:27:20;;;;;;;;;;;;;;;23.84;50.41;96024.66;591198;240;67105;-61
2023/03/10 08:29:48;;;;;;;;;;;;;;;23.84;49.28;96021.20;591245;240;67222;-60
2023/03/10 08:32:15;;;;;;;;;;;;;;;23.84;48.87;96015.83;591194;240;64999;-59
2023/03/10 08:34:43;;;;;;;;;;;;;;;23.83;47.92;96004.31;588329;237;67276;-60
2023/03/10 08:37:10;;;;;;;;;;;;;;;23.84;48.08;95999.73;586309;242;67122;-60
2023/03/10 08:39:39;;;;;;;;;;;;;;;23.83;49.25;95990.12;586324;242;65118;-60
2023/03/10 08:42:08;;;;;;;;;;;;;;;23.83;47.22;95996.27;586354;242;67126;-60
2023/03/10 08:44:35;;;;;;;;;;;;;;;23.84;46.98;95989.00;586378;242;67074;-61
2023/03/10 08:47:03;;;;;;;;;;;;;;;23.85;47.52;95985.23;586266;242;65060;-60
2023/03/10 08:49:31;;;;;;;;;;;;;;;23.84;48.60;95981.73;586343;242;67272;-60
2023/03/10 08:51:59;;;;;;;;;;;;;;;23.85;49.17;95980.65;586334;242;66993;-60
2023/03/10 08:54:26;;;;;;;;;;;;;;;23.84;48.68;95976.37;586255;242;62922;-59
2023/03/10 08:56:54;;;;;;;;;;;;;;;23.85;48.08;95979.87;586360;242;65093;-63
2023/03/10 08:59:21;;;;;;;;;;;;;;;23.85;48.35;95969.14;586248;242;65473;-60
2023/03/10 09:01:49;;;;;;;;;;;;;;;23.85;49.15;95958.41;586284;242;63009;-61
2023/03/10 09:04:16;;;;;;;;;;;;;;;23.85;50.65;95958.41;586312;242;64992;-61
2023/03/10 09:06:44;;;;;;;;;;;;;;;23.84;49.39;95967.53;586294;242;64794;-58
2023/03/10 09:09:11;;;;;;;;;;;;;;;23.84;48.81;95959.48;586289;242;63067;-58
2023/03/10 09:11:40;;;;;;;;;;;;;;;23.84;49.04;95948.75;586358;242;64918;-59
2023/03/10 09:14:10;;;;;;;;;;;;;;;23.85;49.15;95934.25;586169;240;64896;-60
2023/03/10 09:16:39;;;;;;;;;;;;;;;23.86;50.77;95938.51;586211;241;65084;-61
2023/03/10 09:19:07;;;;;;;;;;;;;;;23.85;48.42;95934.25;586346;242;66941;-61
2023/03/10 09:21:35;;;;;;;;;;;;;;;23.85;45.99;95926.98;586289;242;67241;-60
2023/03/10 09:24:03;;;;;;;;;;;;;;;23.87;48.43;95918.61;586362;242;65130;-60
2023/03/10 09:26:30;;;;;;;;;;;;;;;23.87;48.05;95921.30;586275;242;67523;-60
2023/03/10 09:28:57;;;;;;;;;;;;;;;23.86;48.90;95909.78;586284;242;67068;-60
2023/03/10 09:31:26;;;;;;;;;;;;;;;23.87;48.68;95914.05;586291;242;65047;-61
2023/03/10 09:33:54;;;;;;;;;;;;;;;23.88;48.03;95907.58;587048;240;65114;-61
2023/03/10 09:36:21;;;;;;;;;;;;;;;23.88;49.37;95904.11;590579;240;65133;-60
2023/03/10 09:38:49;;;;;;;;;;;;;;;23.88;49.43;95888.02;590517;240;65205;-61
2023/03/10 09:41:36;;;;;;;;;;;;;;;23.88;47.13;95890.69;590549;240;67324;-60
2023/03/10 09:44:08;;;;;;;;;;;;;;;23.89;47.42;95876.94;577166;245;67072;-61
2023/03/10 09:46:38;;;;;;;;;;;;;;;23.89;49.44;95863.53;577130;245;62758;-60
2023/03/10 09:49:15;;;;;;;;;;;;;;;23.90;47.75;95861.66;582306;240;65109;-61
2023/03/10 09:51:44;;;;;;;;;;;;;;;23.91;46.71;95855.17;590519;240;64888;-62
2023/03/10 09:54:16;;;;;;;;;;;;;;;23.91;48.79;95847.91;590550;240;65077;-63
2023/03/10 09:56:44;;;;;;;;;;;;;;;23.91;48.42;95842.54;590212;240;65020;-63
2023/03/10 09:59:15;;;;;;;;;;;;;;;23.91;47.67;95839.86;590548;240;64960;-63
2023/03/10 10:01:44;;;;;;;;;;;;;;;23.89;47.64;95842.06;590496;240;62927;-61
2023/03/10 10:04:13;;;;;;;;;;;;;;;23.92;50.43;95841.42;590493;240;65063;-68
2023/03/10 10:06:42;;;;;;;;;;;;;;;23.92;49.33;95829.91;590628;240;66639;-60
2023/03/10 10:09:12;;;;;;;;;;;;;;;23.92;48.10;95825.33;590498;240;65183;-60
2023/03/10 10:11:40;;;;;;;;;;;;;;;23.93;48.41;95818.88;590375;240;64827;-61
2023/03/10 10:14:12;;;;;;;;;;;;;;;23.94;48.27;95822.34;590089;240;65405;-61
2023/03/10 10:16:44;;;;;;;;;;;;;;;23.96;48.19;95816.66;590510;240;62945;-61
2023/03/10 10:19:13;;;;;;;;;;;;;;;23.97;47.98;95812.86;590415;240;67285;-60
2023/03/10 10:21:48;;;;;;;;;;;;;;;23.96;46.46;95816.66;588860;240;67008;-62
2023/03/10 10:24:17;;;;;;;;;;;;;;;23.97;45.67;95818.23;590548;240;65089;-61
2023/03/10 10:26:44;;;;;;;;;;;;;;;23.99;46.83;95824.07;590407;240;65026;-61
2023/03/10 10:29:13;;;;;;;;;;;;;;;23.99;46.52;95824.86;590511;240;64899;-61
2023/03/10 10:31:41;;;;;;;;;;;;;;;24.00;46.07;95822.95;590570;240;62954;-61
2023/03/10 10:34:13;;;;;;;;;;;;;;;24.01;47.08;95817.28;589037;240;64730;-62
2023/03/10 10:36:44;;;;;;;;;;;;;;;24.01;45.94;95817.28;586334;242;67015;-61
2023/03/10 10:39:23;;;;;;;;;;;;;;;24.02;46.03;95816.16;585070;241;64723;-62
2023/03/10 10:41:50;;;;;;;;;;;;;;;24.03;46.12;95809.68;586286;241;65275;-61
2023/03/10 10:44:18;;;;;;;;;;;;;;;24.04;47.14;95815.86;586333;242;64983;-61
2023/03/10 10:46:54;;;;;;;;;;;;;;;24.04;45.29;95805.12;586279;242;62972;-61
2023/03/10 10:49:26;;;;;;;;;;;;;;;24.04;46.75;95803.22;586326;242;67222;-61
2023/03/10 10:51:58;;;;;;;;;;;;;;;24.05;45.24;95795.95;586236;242;66974;-63
2023/03/10 10:54:30;;;;;;;;;;;;;;;24.06;45.91;95784.09;581688;242;65155;-62
2023/03/10 10:56:58;;;;;;;;;;;;;;;24.06;46.71;95795.64;586274;242;71696;-63
2023/03/10 10:59:30;;;;;;;;;;;;;;;24.05;48.02;95780.63;586296;242;67072;-63
2023/03/10 11:02:02;;;;;;;;;;;;;;;24.07;45.23;95772.27;586273;242;65087;-63
2023/03/10 11:04:31;;;;;;;;;;;;;;;24.08;44.64;95768.47;586327;242;65045;-63
2023/03/10 11:07:12;;;;;;;;;;;;;;;24.10;45.27;95755.52;585987;241;66708;-61
2023/03/10 11:09:40;;;;;;;;;;;;;;;24.10;43.79;95745.57;586238;242;65053;-61
2023/03/10 11:12:12;;;;;;;;;;;;;;;24.11;45.61;95752.50;586282;242;67288;-61
2023/03/10 11:14:51;;;;;;;;;;;;;;;24.10;47.10;95740.20;586256;242;67109;-62
2023/03/10 11:17:23;;;;;;;;;;;;;;;24.11;46.19;95730.25;586219;242;65207;-61
2023/03/10 11:19:52;;;;;;;;;;;;;;;24.11;48.63;95732.94;586379;242;67259;-61
2023/03/10 11:22:24;;;;;;;;;;;;;;;24.10;44.87;95723.32;586217;241;66512;-69
2023/03/10 11:24:53;;;;;;;;;;;;;;;24.10;46.63;95724.10;586342;242;65136;-70
2023/03/10 11:27:22;;;;;;;;;;;;;;;24.10;47.57;95720.63;586188;241;66966;-69
2023/03/10 11:30:08;;;;;;;;;;;;;;;24.10;47.80;95707.22;586160;241;66878;-70
2023/03/10 11:32:41;;;;;;;;;;;;;;;24.10;47.24;95702.63;586344;240;64885;-70
2023/03/10 11:35:28;;;;;;;;;;;;;;;24.10;47.02;95694.58;586213;240;66940;-69
2023/03/10 11:37:57;;;;;;;;;;;;;;;24.10;47.50;95686.53;586318;242;64280;-68
2023/03/10 11:40:27;;;;;;;;;;;;;;;24.10;45.72;95685.75;586224;242;63043;-69
2023/03/10 11:42:56;;;;;;;;;;;;;;;24.09;46.97;95676.91;586100;241;64731;-68
2023/03/10 11:45:27;;;;;;;;;;;;;;;24.10;46.63;95683.84;586235;242;64883;-69
2023/03/10 11:48:00;;;;;;;;;;;;;;;24.10;46.39;95686.53;586276;242;62951;-69
2023/03/10 11:50:41;;;;;;;;;;;;;;;24.10;46.32;95681.16;582963;242;66731;-69
2023/03/10 11:53:13;;;;;;;;;;;;;;;24.08;46.44;95678.00;585979;242;43267;-69
2023/03/10 11:55:41;;;;;;;;;;;;;;;24.10;46.69;95672.33;586174;242;65010;-68
2023/03/10 11:58:09;;;;;;;;;;;;;;;24.08;46.50;95675.32;586249;242;68223;-69
2023/03/10 12:00:42;;;;;;;;;;;;;;;24.09;45.43;95666.17;586297;241;46341;-71
2023/03/10 12:03:16;;;;;;;;;;;;;;;24.09;46.82;95670.73;586094;241;65147;-68
2023/03/10 12:05:44;;;;;;;;;;;;;;;24.08;44.99;95674.53;586263;242;68077;-69
2023/03/10 12:08:12;;;;;;;;;;;;;;;24.08;46.25;95671.85;586319;242;67793;-67
2023/03/10 12:10:43;;;;;;;;;;;;;;;24.07;46.47;95660.34;586267;242;65081;-67
2023/03/10 12:13:15;;;;;;;;;;;;;;;24.07;43.48;95665.70;586214;242;65071;-68
2023/03/10 12:15:48;;;;;;;;;;;;;;;24.08;43.76;95658.44;586225;241;44293;-69
2023/03/10 12:18:15;;;;;;;;;;;;;;;24.07;45.34;95664.92;586326;242;63181;-68
2023/03/10 12:20:45;;;;;;;;;;;;;;;24.07;45.58;95656.87;586260;242;64856;-67
2023/03/10 12:23:26;;;;;;;;;;;;;;;24.07;39.25;95659.55;586250;242;64985;-67
2023/03/10 12:25:53;;;;;;;;;;;;;;;24.07;45.32;95656.87;586313;241;62944;-68
2023/03/10 12:28:25;;;;;;;;;;;;;;;24.05;44.98;95654.50;585979;241;68059;-68
2023/03/10 12:31:06;;;;;;;;;;;;;;;24.06;46.11;95647.23;585194;241;67034;-68
2023/03/10 12:33:41;;;;;;;;;;;;;;;24.04;44.88;95644.89;586902;239;62834;-68
2023/03/10 12:36:16;;;;;;;;;;;;;;;24.03;46.82;95654.03;593007;239;67262;-69
2023/03/10 12:38:45;;;;;;;;;;;;;;;24.03;45.17;95647.88;594289;239;67574;-68
2023/03/10 12:41:30;;;;;;;;;;;;;;;24.04;45.45;95650.25;594155;238;62998;-67
2023/03/10 12:44:08;;;;;;;;;;;;;;;24.02;47.18;95647.09;593831;239;67334;-68
2023/03/10 12:46:39;;;;;;;;;;;;;;;24.03;47.22;95639.83;592480;239;67481;-68
2023/03/10 12:49:11;;;;;;;;;;;;;;;24.02;46.89;95641.73;593833;239;66133;-68
2023/03/10 12:51:40;;;;;;;;;;;;;;;24.01;45.84;95631.31;593666;239;67266;-69
2023/03/10 12:54:26;;;;;;;;;;;;;;;24.02;46.61;95633.68;594083;238;67078;-69
2023/03/10 12:57:01;;;;;;;;;;;;;;;24.02;45.01;95635.58;594002;239;66034;-68
2023/03/10 12:59:30;;;;;;;;;;;;;;;24.01;47.14;95625.94;594053;239;65244;-68